Messwerte Lynn Lake

Temperatur

Temperatur
°C
1618639200 1.00 1.00 0
1618642800 2.00 2.00 0
1618646400 3.00 3.00 0
1618650000 4.00 4.00 0
1618653600 5.00 5.00 -1
1618657200 6.00 6.00 -1
1618660800 7.00 7.00 -2
1618664400 8.00 8.00 -1
1618668000 9.00 9.00 -1
1618671600 10.00 10.00 -1
1618675200 11.00 11.00 0
1618678800 12.00 12.00
1618682400 13.00 13.00 0
1618686000 14.00 14.00 0
1618689600 15.00 15.00 0
1618693200 16.00 16.00 -1
1618696800 17.00 17.00
1618700400 18.00 18.00 -2
1618704000 19.00 19.00 -2
1618707600 20.00 20.00 -3
1618711200 21.00 21.00 -3
1618714800 22.00 22.00 -4
1618718400 23.00 23.00 -5
1618722000 0.00 0.00 -5

Aktuellste Messwerte

Wettercharakter
Wetter: bedeckt
Temperatur
-6 °C
Feuchtigkeit
80 %
Wind
15 km/hWindrichtung: Nord
Böen
30 km/h
Luftdruck
1024 hPa
Messzeit: 18. April 2021, 1.00Datenquelle: METAR

Weitere Messstationen in der Nähe

Messstation Temperatur Entfernung
Southend -3 °C 147 km
Thompson -4 °C 229 km
Flin Flon Airport - 244 km
Key Lake -7 °C 279 km
Kelsey Dam Cs -5 °C 294 km
The Pas 0 °C 320 km
La Ronge 0 °C 322 km

Wind

Windrichtung Böen Mittelwind
° km/h km/h
1618639200 1.00 0.00 - 1.00 260° 10
1618642800 2.00 1.00 - 2.00 270° 10
1618646400 3.00 2.00 - 3.00 270° 10
1618650000 4.00 3.00 - 4.00 300° 15
1618653600 5.00 4.00 - 5.00 310° 10
1618657200 6.00 5.00 - 6.00 300° 10
1618660800 7.00 6.00 - 7.00 340° 15
1618664400 8.00 7.00 - 8.00 350° 30 15
1618668000 9.00 8.00 - 9.00 360° 30 15
1618671600 10.00 9.00 - 10.00 20° 35 20
1618675200 11.00 10.00 - 11.00 10° 30 20
1618678800 12.00 11.00 - 12.00
1618682400 13.00 12.00 - 13.00 350° 30 15
1618686000 14.00 13.00 - 14.00 360° 20
1618689600 15.00 14.00 - 15.00 340° 15
1618693200 16.00 15.00 - 16.00 10° 35 25
1618696800 17.00 16.00 - 17.00
1618700400 18.00 17.00 - 18.00 10° 30 20
1618704000 19.00 18.00 - 19.00 10° 30 20
1618707600 20.00 19.00 - 20.00 360° 30 20
1618711200 21.00 20.00 - 21.00 350° 15
1618714800 22.00 21.00 - 22.00 360° 20
1618718400 23.00 22.00 - 23.00 360° 30 15
1618722000 0.00 23.00 - 0.00 10° 20

Ihre Wetterstation

Fehlt Ihre Wetterstation auf unserem Portal?

Schreiben Sie an network@meteonews.ch

Klima

Wann ist es am wärmsten? Wann regnet es am wenigsten? Unsere Klimadaten geben Auskunft.